Country
Station

 

Weather  for  Somerset Automatic Weather Observing/Reporting System  -  United States    United States

  
28 °C (82 °F)
    
 
 

Current METAR for Somerset Automatic Weather Observing/Reporting System is :

KSME 191655Z AUTO 00000KT 10SM SCT027 BKN032 BKN038 28/23 A3010 RMK AO2

 

This is a report for Somerset Automatic Weather Observing/Reporting System - United States.
 
The report was made 25 minutes ago, at 16:55 UTC .
The wind was calm.
 
The temperature was 28 °C (82 °F), with a dew-point at 23 °C (73 °F).
The temperature felt like 31 °C (87 °F).
 
The atmospheric pressure was 1019 hPa (30.10 inHg).
The relative humidity was 74.3%.
 
There were scattered clouds at a height of 823 meters (2700 feet), broken clouds at a height of 975 meters (3200 feet) and broken clouds at a height of 1158 meters (3800 feet).
 
The overall visibility was 16.1 kilometers (10.0 miles).
 

 
 
 
 

Country :   A   B   C   D   E   F   G   H   I   J   K   L   M   N   O   P   Q   R   S   T   U   V   W   Y   Z

 

Site Info  |  Disclaimer  |  Credits  |  Privacy
Contact us  |  Add to favorites
© 2013-2019 METARs - All rights reserved